Weather at Cabo San Lucas International Airport

Public forecast

Using degrees Celsius for public forecast. Weather courtesy of forecast.io.

Current aviation weather report (METAR) for Cabo San Lucas International Airport

2024/06/18 17:40 (retrieved 48 minutes ago)

MMSL 181740Z 16005KT 10SM SKC 29/16 A2977

Aviation forecast (TAF) for Cabo San Lucas International Airport

2024/06/18 18:53 (retrieved 0 seconds ago)

TAF MMSL 181653Z 1818/1918 12010KT P6SM SKC FM182000 28012KT P6SM SKC